Mackinaw City, MI (49701)

9:31 PM EDT on September 26, 2016 (GMT -0400)
Mackinac Bridge | | Change Station

Elev 587 ft 45.79 °N, 84.73 °W | Updated 15 seconds ago

Overcast
Overcast
53.4 °F
Feels Like 53.4 °F
N
6.0
Wind Variable Wind from North

Today
High -- | Low -- °F
--% Chance of Precip.
Yesterday
High -- | Low -- °F
Precip. -- in
Pressure 29.66 in
Visibility 10.0 miles
Clouds Mostly Cloudy 3300 ft
Mostly Cloudy 5000 ft
Overcast 7000 ft
Dew Point 49 °F
Humidity 85%
Rainfall Not available.
Snow Depth Not available.
7:31 AM 7:27 PM
Waning Crescent, 15% visible
METAR KMCD 270114Z AUTO 23011G20KT 10SM BKN033 BKN050 OVC070 13/09 A2966 RMK AO2 T01290092
Pressure 29.66 in
Visibility 10.0 miles
Clouds Mostly Cloudy 3300 ft
Mostly Cloudy 5000 ft
Overcast 7000 ft
Dew Point 49 °F
Humidity 85%
Rainfall Not available.
Snow Depth Not available.
7:31 AM 7:27 PM
Waning Crescent, 15% visible
METAR KMCD 270114Z AUTO 23011G20KT 10SM BKN033 BKN050 OVC070 13/09 A2966 RMK AO2 T01290092

10-Day Weather Forecast

Almanac

Astronomy

Sep. 26, 2016 Rise Set
Actual Time
Civil Twilight
Nautical Twilight
Astronomical Twilight
Moon
Length of Visible Light
Length of Day
Tomorrow will be .
, % of the Moon is Illuminated

Today's Extremes

State Highs State Lows

Community

WunderPhotos

Upload Photos

1,942,008 photos uploaded!

WunderBlog® & News

Nearby

Air Quality

  Air Quality AQ Index Pollutant
Not available.

Snow Depth

Station Depth Elevation

Earthquake Activity

City Distance Mag. Time & Date
Minimum magnitude displayed is 2.5.

Coastal Water Temperatures

Place Temperature

Stations

Nearby Weather Stations

Station Location Temp. Windchill Dew Point Humidity Wind Precip. Elev Updated Type
                   

Watches & Warnings

There are currently no watches in effect.